sensor_id;sensor_type;location;lat;lon;timestamp;P1;durP1;ratioP1;P2;durP2;ratioP2
18280;SDS011;9266;51.132;17.062;2023-08-07T00:02:10;7.20;;;5.30;;
18280;SDS011;9266;51.132;17.062;2023-08-07T00:04:37;6.03;;;5.40;;
18280;SDS011;9266;51.132;17.062;2023-08-07T00:07:04;5.60;;;5.10;;
18280;SDS011;9266;51.132;17.062;2023-08-07T00:09:33;6.60;;;6.00;;
18280;SDS011;9266;51.132;17.062;2023-08-07T00:12:00;6.50;;;5.30;;
18280;SDS011;9266;51.132;17.062;2023-08-07T00:14:27;6.17;;;5.40;;
18280;SDS011;9266;51.132;17.062;2023-08-07T00:16:54;6.43;;;5.23;;
18280;SDS011;9266;51.132;17.062;2023-08-07T00:19:21;6.10;;;5.03;;
18280;SDS011;9266;51.132;17.062;2023-08-07T00:21:48;6.67;;;5.40;;
18280;SDS011;9266;51.132;17.062;2023-08-07T00:24:15;6.13;;;5.53;;
18280;SDS011;9266;51.132;17.062;2023-08-07T00:26:43;7.60;;;5.23;;
18280;SDS011;9266;51.132;17.062;2023-08-07T00:29:10;6.03;;;5.43;;
18280;SDS011;9266;51.132;17.062;2023-08-07T00:31:37;5.70;;;5.20;;
18280;SDS011;9266;51.132;17.062;2023-08-07T00:34:04;6.13;;;5.53;;
18280;SDS011;9266;51.132;17.062;2023-08-07T00:36:31;6.37;;;4.80;;
18280;SDS011;9266;51.132;17.062;2023-08-07T00:39:00;5.27;;;4.77;;
18280;SDS011;9266;51.132;17.062;2023-08-07T00:41:28;5.10;;;4.60;;
18280;SDS011;9266;51.132;17.062;2023-08-07T00:43:56;5.60;;;5.00;;
18280;SDS011;9266;51.132;17.062;2023-08-07T00:46:23;5.73;;;5.00;;
18280;SDS011;9266;51.132;17.062;2023-08-07T00:48:51;5.23;;;4.73;;
18280;SDS011;9266;51.132;17.062;2023-08-07T00:51:18;6.07;;;5.00;;
18280;SDS011;9266;51.132;17.062;2023-08-07T00:53:46;5.77;;;4.90;;
18280;SDS011;9266;51.132;17.062;2023-08-07T00:56:15;6.37;;;4.87;;
18280;SDS011;9266;51.132;17.062;2023-08-07T00:58:42;5.13;;;4.63;;
18280;SDS011;9266;51.132;17.062;2023-08-07T01:01:11;6.80;;;4.93;;
18280;SDS011;9266;51.132;17.062;2023-08-07T01:03:38;5.27;;;4.77;;
18280;SDS011;9266;51.132;17.062;2023-08-07T01:06:05;6.23;;;5.17;;
18280;SDS011;9266;51.132;17.062;2023-08-07T01:08:33;7.07;;;4.50;;
18280;SDS011;9266;51.132;17.062;2023-08-07T01:11:07;5.17;;;4.20;;
18280;SDS011;9266;51.132;17.062;2023-08-07T01:13:45;6.60;;;4.37;;
18280;SDS011;9266;51.132;17.062;2023-08-07T01:16:21;5.30;;;4.77;;
18280;SDS011;9266;51.132;17.062;2023-08-07T01:18:52;6.70;;;4.13;;
18280;SDS011;9266;51.132;17.062;2023-08-07T01:21:21;5.43;;;4.60;;
18280;SDS011;9266;51.132;17.062;2023-08-07T01:23:49;4.70;;;4.20;;
18280;SDS011;9266;51.132;17.062;2023-08-07T01:26:17;5.07;;;4.60;;
18280;SDS011;9266;51.132;17.062;2023-08-07T01:28:46;5.37;;;4.40;;
18280;SDS011;9266;51.132;17.062;2023-08-07T01:31:21;5.40;;;4.90;;
18280;SDS011;9266;51.132;17.062;2023-08-07T01:33:51;5.77;;;5.27;;
18280;SDS011;9266;51.132;17.062;2023-08-07T01:36:23;5.43;;;4.93;;
18280;SDS011;9266;51.132;17.062;2023-08-07T01:38:54;5.40;;;4.90;;
18280;SDS011;9266;51.132;17.062;2023-08-07T01:41:23;5.60;;;4.93;;
18280;SDS011;9266;51.132;17.062;2023-08-07T01:43:50;7.90;;;4.73;;
18280;SDS011;9266;51.132;17.062;2023-08-07T01:46:18;7.17;;;5.23;;
18280;SDS011;9266;51.132;17.062;2023-08-07T01:48:45;6.90;;;6.20;;
18280;SDS011;9266;51.132;17.062;2023-08-07T01:51:12;7.47;;;5.10;;
18280;SDS011;9266;51.132;17.062;2023-08-07T01:53:39;7.27;;;5.13;;
18280;SDS011;9266;51.132;17.062;2023-08-07T01:56:07;5.53;;;4.93;;
18280;SDS011;9266;51.132;17.062;2023-08-07T01:58:34;6.03;;;4.83;;
18280;SDS011;9266;51.132;17.062;2023-08-07T02:01:01;6.30;;;4.80;;
18280;SDS011;9266;51.132;17.062;2023-08-07T02:03:28;6.20;;;5.40;;
18280;SDS011;9266;51.132;17.062;2023-08-07T02:05:55;8.20;;;5.00;;
18280;SDS011;9266;51.132;17.062;2023-08-07T02:08:22;5.80;;;5.20;;
18280;SDS011;9266;51.132;17.062;2023-08-07T02:10:49;6.33;;;5.73;;
18280;SDS011;9266;51.132;17.062;2023-08-07T02:13:17;6.40;;;5.20;;
18280;SDS011;9266;51.132;17.062;2023-08-07T02:15:44;6.43;;;5.53;;
18280;SDS011;9266;51.132;17.062;2023-08-07T02:18:11;6.43;;;5.83;;
18280;SDS011;9266;51.132;17.062;2023-08-07T02:20:38;7.80;;;5.30;;
18280;SDS011;9266;51.132;17.062;2023-08-07T02:23:05;6.37;;;5.07;;
18280;SDS011;9266;51.132;17.062;2023-08-07T02:25:31;6.57;;;5.63;;
18280;SDS011;9266;51.132;17.062;2023-08-07T02:27:58;7.50;;;5.73;;
18280;SDS011;9266;51.132;17.062;2023-08-07T02:30:26;7.30;;;5.47;;
18280;SDS011;9266;51.132;17.062;2023-08-07T02:32:53;11.60;;;10.60;;
18280;SDS011;9266;51.132;17.062;2023-08-07T02:35:20;7.47;;;5.60;;
18280;SDS011;9266;51.132;17.062;2023-08-07T02:37:47;5.90;;;5.03;;
18280;SDS011;9266;51.132;17.062;2023-08-07T02:40:14;6.67;;;5.57;;
18280;SDS011;9266;51.132;17.062;2023-08-07T02:42:43;10.07;;;5.43;;
18280;SDS011;9266;51.132;17.062;2023-08-07T02:45:10;7.77;;;4.80;;
18280;SDS011;9266;51.132;17.062;2023-08-07T02:47:38;7.50;;;5.20;;
18280;SDS011;9266;51.132;17.062;2023-08-07T02:50:05;5.80;;;5.20;;
18280;SDS011;9266;51.132;17.062;2023-08-07T02:52:32;5.20;;;4.70;;
18280;SDS011;9266;51.132;17.062;2023-08-07T02:54:59;5.77;;;4.80;;
18280;SDS011;9266;51.132;17.062;2023-08-07T02:57:26;7.43;;;4.60;;
18280;SDS011;9266;51.132;17.062;2023-08-07T02:59:54;6.20;;;5.60;;
18280;SDS011;9266;51.132;17.062;2023-08-07T03:02:20;9.57;;;5.50;;
18280;SDS011;9266;51.132;17.062;2023-08-07T03:04:49;5.53;;;4.80;;
18280;SDS011;9266;51.132;17.062;2023-08-07T03:07:16;8.77;;;4.83;;
18280;SDS011;9266;51.132;17.062;2023-08-07T03:09:44;6.07;;;5.13;;
18280;SDS011;9266;51.132;17.062;2023-08-07T03:12:12;6.00;;;4.63;;
18280;SDS011;9266;51.132;17.062;2023-08-07T03:14:39;5.30;;;4.50;;
18280;SDS011;9266;51.132;17.062;2023-08-07T03:17:06;5.67;;;4.77;;
18280;SDS011;9266;51.132;17.062;2023-08-07T03:19:33;4.87;;;4.47;;
18280;SDS011;9266;51.132;17.062;2023-08-07T03:22:01;9.00;;;4.23;;
18280;SDS011;9266;51.132;17.062;2023-08-07T03:24:29;6.20;;;4.63;;
18280;SDS011;9266;51.132;17.062;2023-08-07T03:26:55;4.90;;;4.30;;
18280;SDS011;9266;51.132;17.062;2023-08-07T03:29:22;13.20;;;5.20;;
18280;SDS011;9266;51.132;17.062;2023-08-07T03:31:50;6.80;;;4.83;;
18280;SDS011;9266;51.132;17.062;2023-08-07T03:34:17;6.13;;;4.73;;
18280;SDS011;9266;51.132;17.062;2023-08-07T03:36:44;6.57;;;4.77;;
18280;SDS011;9266;51.132;17.062;2023-08-07T03:39:12;5.43;;;4.63;;
18280;SDS011;9266;51.132;17.062;2023-08-07T03:41:39;6.27;;;5.03;;
18280;SDS011;9266;51.132;17.062;2023-08-07T03:44:06;5.73;;;4.73;;
18280;SDS011;9266;51.132;17.062;2023-08-07T03:46:33;6.37;;;4.80;;
18280;SDS011;9266;51.132;17.062;2023-08-07T03:49:00;6.13;;;4.70;;
18280;SDS011;9266;51.132;17.062;2023-08-07T03:51:27;5.93;;;4.60;;
18280;SDS011;9266;51.132;17.062;2023-08-07T03:53:55;6.50;;;5.40;;
18280;SDS011;9266;51.132;17.062;2023-08-07T03:56:24;5.40;;;4.90;;
18280;SDS011;9266;51.132;17.062;2023-08-07T03:58:51;7.03;;;5.40;;
18280;SDS011;9266;51.132;17.062;2023-08-07T04:01:18;5.87;;;4.80;;
18280;SDS011;9266;51.132;17.062;2023-08-07T04:03:45;6.60;;;5.07;;
18280;SDS011;9266;51.132;17.062;2023-08-07T04:06:13;9.57;;;6.00;;
18280;SDS011;9266;51.132;17.062;2023-08-07T04:08:41;9.03;;;5.70;;
18280;SDS011;9266;51.132;17.062;2023-08-07T04:11:08;8.93;;;6.00;;
18280;SDS011;9266;51.132;17.062;2023-08-07T04:13:37;6.43;;;5.83;;
18280;SDS011;9266;51.132;17.062;2023-08-07T04:16:04;7.03;;;5.83;;
18280;SDS011;9266;51.132;17.062;2023-08-07T04:18:31;6.87;;;6.17;;
18280;SDS011;9266;51.132;17.062;2023-08-07T04:20:58;6.90;;;6.20;;
18280;SDS011;9266;51.132;17.062;2023-08-07T04:23:25;7.67;;;6.30;;
18280;SDS011;9266;51.132;17.062;2023-08-07T04:25:53;6.73;;;6.00;;
18280;SDS011;9266;51.132;17.062;2023-08-07T04:28:20;7.33;;;6.40;;
18280;SDS011;9266;51.132;17.062;2023-08-07T04:30:50;8.57;;;5.97;;
18280;SDS011;9266;51.132;17.062;2023-08-07T04:33:18;7.90;;;7.10;;
18280;SDS011;9266;51.132;17.062;2023-08-07T04:35:45;7.17;;;6.47;;
18280;SDS011;9266;51.132;17.062;2023-08-07T04:38:12;7.90;;;6.90;;
18280;SDS011;9266;51.132;17.062;2023-08-07T04:40:43;7.97;;;7.03;;
18280;SDS011;9266;51.132;17.062;2023-08-07T04:43:11;8.63;;;7.00;;
18280;SDS011;9266;51.132;17.062;2023-08-07T04:45:38;10.53;;;7.53;;
18280;SDS011;9266;51.132;17.062;2023-08-07T04:48:06;9.93;;;8.20;;
18280;SDS011;9266;51.132;17.062;2023-08-07T04:50:33;7.40;;;6.70;;
18280;SDS011;9266;51.132;17.062;2023-08-07T04:53:00;7.83;;;7.03;;
18280;SDS011;9266;51.132;17.062;2023-08-07T04:55:27;7.33;;;6.63;;
18280;SDS011;9266;51.132;17.062;2023-08-07T04:57:54;6.87;;;6.10;;
18280;SDS011;9266;51.132;17.062;2023-08-07T05:00:21;7.70;;;6.80;;
18280;SDS011;9266;51.132;17.062;2023-08-07T05:02:48;7.90;;;6.63;;
18280;SDS011;9266;51.132;17.062;2023-08-07T05:05:17;7.20;;;5.80;;
18280;SDS011;9266;51.132;17.062;2023-08-07T05:07:45;6.30;;;5.57;;
18280;SDS011;9266;51.132;17.062;2023-08-07T05:10:13;8.27;;;6.27;;
18280;SDS011;9266;51.132;17.062;2023-08-07T05:12:40;7.40;;;5.93;;
18280;SDS011;9266;51.132;17.062;2023-08-07T05:15:07;7.60;;;6.10;;
18280;SDS011;9266;51.132;17.062;2023-08-07T05:17:34;6.47;;;5.87;;
18280;SDS011;9266;51.132;17.062;2023-08-07T05:20:01;6.47;;;5.87;;
18280;SDS011;9266;51.132;17.062;2023-08-07T05:22:30;7.17;;;6.40;;
18280;SDS011;9266;51.132;17.062;2023-08-07T05:24:57;8.23;;;5.80;;
18280;SDS011;9266;51.132;17.062;2023-08-07T05:27:24;7.43;;;5.90;;
18280;SDS011;9266;51.132;17.062;2023-08-07T05:29:51;6.30;;;5.30;;
18280;SDS011;9266;51.132;17.062;2023-08-07T05:32:18;5.73;;;5.03;;
18280;SDS011;9266;51.132;17.062;2023-08-07T05:34:45;5.30;;;4.80;;
18280;SDS011;9266;51.132;17.062;2023-08-07T05:37:12;5.73;;;5.17;;
18280;SDS011;9266;51.132;17.062;2023-08-07T05:39:40;5.83;;;5.33;;
18280;SDS011;9266;51.132;17.062;2023-08-07T05:42:07;5.50;;;4.80;;
18280;SDS011;9266;51.132;17.062;2023-08-07T05:44:35;8.13;;;5.40;;
18280;SDS011;9266;51.132;17.062;2023-08-07T05:47:02;6.70;;;6.10;;
18280;SDS011;9266;51.132;17.062;2023-08-07T05:49:29;6.17;;;5.20;;
18280;SDS011;9266;51.132;17.062;2023-08-07T05:51:56;7.07;;;5.50;;
18280;SDS011;9266;51.132;17.062;2023-08-07T05:54:23;6.67;;;5.80;;
18280;SDS011;9266;51.132;17.062;2023-08-07T05:56:51;5.93;;;5.43;;
18280;SDS011;9266;51.132;17.062;2023-08-07T05:59:18;6.90;;;4.90;;
18280;SDS011;9266;51.132;17.062;2023-08-07T06:01:45;5.83;;;5.23;;
18280;SDS011;9266;51.132;17.062;2023-08-07T06:04:12;8.10;;;5.43;;
18280;SDS011;9266;51.132;17.062;2023-08-07T06:06:39;7.40;;;5.90;;
18280;SDS011;9266;51.132;17.062;2023-08-07T06:09:07;7.07;;;6.37;;
18280;SDS011;9266;51.132;17.062;2023-08-07T06:11:35;8.20;;;7.13;;
18280;SDS011;9266;51.132;17.062;2023-08-07T06:14:03;8.17;;;7.13;;
18280;SDS011;9266;51.132;17.062;2023-08-07T06:16:30;8.03;;;7.23;;
18280;SDS011;9266;51.132;17.062;2023-08-07T06:18:57;9.40;;;7.70;;
18280;SDS011;9266;51.132;17.062;2023-08-07T06:21:24;9.43;;;6.47;;
18280;SDS011;9266;51.132;17.062;2023-08-07T06:23:53;7.70;;;6.93;;
18280;SDS011;9266;51.132;17.062;2023-08-07T06:26:20;7.67;;;6.63;;
18280;SDS011;9266;51.132;17.062;2023-08-07T06:28:47;7.03;;;5.70;;
18280;SDS011;9266;51.132;17.062;2023-08-07T06:31:16;6.27;;;5.33;;
18280;SDS011;9266;51.132;17.062;2023-08-07T06:33:44;6.00;;;5.40;;
18280;SDS011;9266;51.132;17.062;2023-08-07T06:36:11;5.93;;;5.33;;
18280;SDS011;9266;51.132;17.062;2023-08-07T06:38:38;6.23;;;4.93;;
18280;SDS011;9266;51.132;17.062;2023-08-07T06:41:05;5.90;;;4.90;;
18280;SDS011;9266;51.132;17.062;2023-08-07T06:43:32;5.60;;;5.00;;
18280;SDS011;9266;51.132;17.062;2023-08-07T06:45:59;5.37;;;4.77;;
18280;SDS011;9266;51.132;17.062;2023-08-07T06:48:27;6.37;;;5.43;;
18280;SDS011;9266;51.132;17.062;2023-08-07T06:50:54;5.67;;;4.50;;
18280;SDS011;9266;51.132;17.062;2023-08-07T06:53:21;7.30;;;4.87;;
18280;SDS011;9266;51.132;17.062;2023-08-07T06:55:48;4.10;;;3.70;;
18280;SDS011;9266;51.132;17.062;2023-08-07T06:58:15;5.33;;;4.83;;
18280;SDS011;9266;51.132;17.062;2023-08-07T07:00:42;6.10;;;4.23;;
18280;SDS011;9266;51.132;17.062;2023-08-07T07:03:09;5.73;;;4.17;;
18280;SDS011;9266;51.132;17.062;2023-08-07T07:05:37;4.73;;;3.90;;
18280;SDS011;9266;51.132;17.062;2023-08-07T07:08:04;4.40;;;4.00;;
18280;SDS011;9266;51.132;17.062;2023-08-07T07:10:31;4.37;;;3.80;;
18280;SDS011;9266;51.132;17.062;2023-08-07T07:12:58;4.83;;;4.10;;
18280;SDS011;9266;51.132;17.062;2023-08-07T07:15:25;4.97;;;4.20;;
18280;SDS011;9266;51.132;17.062;2023-08-07T07:17:52;3.90;;;3.50;;
18280;SDS011;9266;51.132;17.062;2023-08-07T07:20:19;5.27;;;4.77;;
18280;SDS011;9266;51.132;17.062;2023-08-07T07:22:48;3.83;;;3.43;;
18280;SDS011;9266;51.132;17.062;2023-08-07T07:25:15;7.60;;;3.53;;
18280;SDS011;9266;51.132;17.062;2023-08-07T07:27:42;4.63;;;3.87;;
18280;SDS011;9266;51.132;17.062;2023-08-07T07:30:09;3.67;;;3.10;;
18280;SDS011;9266;51.132;17.062;2023-08-07T07:32:36;5.97;;;3.90;;
18280;SDS011;9266;51.132;17.062;2023-08-07T07:35:04;5.37;;;3.73;;
18280;SDS011;9266;51.132;17.062;2023-08-07T07:37:31;3.63;;;2.73;;
18280;SDS011;9266;51.132;17.062;2023-08-07T07:39:59;5.07;;;3.00;;
18280;SDS011;9266;51.132;17.062;2023-08-07T07:42:26;3.50;;;2.90;;
18280;SDS011;9266;51.132;17.062;2023-08-07T07:44:53;4.67;;;2.80;;
18280;SDS011;9266;51.132;17.062;2023-08-07T07:47:20;4.23;;;2.47;;
18280;SDS011;9266;51.132;17.062;2023-08-07T07:49:47;5.93;;;2.63;;
18280;SDS011;9266;51.132;17.062;2023-08-07T07:52:14;4.90;;;2.80;;
18280;SDS011;9266;51.132;17.062;2023-08-07T07:54:41;4.10;;;2.60;;
18280;SDS011;9266;51.132;17.062;2023-08-07T07:57:10;3.97;;;2.70;;
18280;SDS011;9266;51.132;17.062;2023-08-07T07:59:37;4.87;;;3.03;;
18280;SDS011;9266;51.132;17.062;2023-08-07T08:02:04;3.40;;;2.70;;
18280;SDS011;9266;51.132;17.062;2023-08-07T08:04:31;4.17;;;2.77;;
18280;SDS011;9266;51.132;17.062;2023-08-07T08:07:00;4.03;;;2.70;;
18280;SDS011;9266;51.132;17.062;2023-08-07T08:09:28;2.93;;;2.50;;
18280;SDS011;9266;51.132;17.062;2023-08-07T08:11:55;4.83;;;2.73;;
18280;SDS011;9266;51.132;17.062;2023-08-07T08:14:24;4.37;;;2.53;;
18280;SDS011;9266;51.132;17.062;2023-08-07T08:16:50;3.50;;;2.53;;
18280;SDS011;9266;51.132;17.062;2023-08-07T08:19:17;4.13;;;2.60;;
18280;SDS011;9266;51.132;17.062;2023-08-07T08:21:44;6.60;;;2.77;;
18280;SDS011;9266;51.132;17.062;2023-08-07T08:24:11;3.33;;;2.60;;
18280;SDS011;9266;51.132;17.062;2023-08-07T08:26:38;3.97;;;2.70;;
18280;SDS011;9266;51.132;17.062;2023-08-07T08:29:05;3.27;;;2.93;;
18280;SDS011;9266;51.132;17.062;2023-08-07T08:31:34;3.87;;;3.00;;
18280;SDS011;9266;51.132;17.062;2023-08-07T08:34:01;5.87;;;3.30;;
18280;SDS011;9266;51.132;17.062;2023-08-07T08:36:29;3.93;;;3.07;;
18280;SDS011;9266;51.132;17.062;2023-08-07T08:38:56;4.53;;;3.40;;
18280;SDS011;9266;51.132;17.062;2023-08-07T08:41:23;4.83;;;3.33;;
18280;SDS011;9266;51.132;17.062;2023-08-07T08:43:51;5.63;;;3.47;;
18280;SDS011;9266;51.132;17.062;2023-08-07T08:46:20;7.13;;;3.50;;
18280;SDS011;9266;51.132;17.062;2023-08-07T08:48:51;8.13;;;3.50;;
18280;SDS011;9266;51.132;17.062;2023-08-07T08:51:22;3.87;;;3.20;;
18280;SDS011;9266;51.132;17.062;2023-08-07T08:53:51;6.43;;;3.67;;
18280;SDS011;9266;51.132;17.062;2023-08-07T08:56:21;4.93;;;3.53;;
18280;SDS011;9266;51.132;17.062;2023-08-07T08:58:49;5.03;;;3.27;;
18280;SDS011;9266;51.132;17.062;2023-08-07T09:01:17;5.20;;;3.30;;
18280;SDS011;9266;51.132;17.062;2023-08-07T09:03:44;4.53;;;3.33;;
18280;SDS011;9266;51.132;17.062;2023-08-07T09:06:13;4.20;;;3.00;;
18280;SDS011;9266;51.132;17.062;2023-08-07T09:08:41;7.93;;;6.30;;
18280;SDS011;9266;51.132;17.062;2023-08-07T09:11:09;4.23;;;3.10;;
18280;SDS011;9266;51.132;17.062;2023-08-07T09:13:38;5.23;;;3.53;;
18280;SDS011;9266;51.132;17.062;2023-08-07T09:16:09;4.00;;;3.10;;
18280;SDS011;9266;51.132;17.062;2023-08-07T09:18:37;3.77;;;2.70;;
18280;SDS011;9266;51.132;17.062;2023-08-07T09:21:05;4.67;;;2.90;;
18280;SDS011;9266;51.132;17.062;2023-08-07T09:23:33;3.30;;;2.83;;
18280;SDS011;9266;51.132;17.062;2023-08-07T09:26:01;5.87;;;3.10;;
18280;SDS011;9266;51.132;17.062;2023-08-07T09:28:29;4.70;;;3.40;;
18280;SDS011;9266;51.132;17.062;2023-08-07T09:30:58;6.13;;;3.80;;
18280;SDS011;9266;51.132;17.062;2023-08-07T09:33:27;7.43;;;3.37;;
18280;SDS011;9266;51.132;17.062;2023-08-07T09:35:57;4.37;;;3.97;;
18280;SDS011;9266;51.132;17.062;2023-08-07T09:38:26;4.53;;;3.60;;
18280;SDS011;9266;51.132;17.062;2023-08-07T09:40:58;3.97;;;3.20;;
18280;SDS011;9266;51.132;17.062;2023-08-07T09:43:25;6.53;;;4.20;;
18280;SDS011;9266;51.132;17.062;2023-08-07T09:45:52;4.80;;;3.10;;
18280;SDS011;9266;51.132;17.062;2023-08-07T09:48:27;5.07;;;3.00;;
18280;SDS011;9266;51.132;17.062;2023-08-07T09:50:54;3.17;;;2.90;;
18280;SDS011;9266;51.132;17.062;2023-08-07T09:53:25;5.43;;;2.70;;
18280;SDS011;9266;51.132;17.062;2023-08-07T09:55:52;6.17;;;3.10;;
18280;SDS011;9266;51.132;17.062;2023-08-07T09:58:21;3.20;;;2.77;;
18280;SDS011;9266;51.132;17.062;2023-08-07T10:00:49;4.23;;;2.90;;
18280;SDS011;9266;51.132;17.062;2023-08-07T10:03:18;3.83;;;3.00;;
18280;SDS011;9266;51.132;17.062;2023-08-07T10:05:45;4.70;;;2.80;;
18280;SDS011;9266;51.132;17.062;2023-08-07T10:08:13;3.20;;;2.70;;
18280;SDS011;9266;51.132;17.062;2023-08-07T10:10:40;4.23;;;3.10;;
18280;SDS011;9266;51.132;17.062;2023-08-07T10:13:07;5.70;;;3.03;;
18280;SDS011;9266;51.132;17.062;2023-08-07T10:15:37;4.00;;;2.50;;
18280;SDS011;9266;51.132;17.062;2023-08-07T10:18:05;4.90;;;2.80;;
18280;SDS011;9266;51.132;17.062;2023-08-07T10:20:32;7.90;;;2.87;;
18280;SDS011;9266;51.132;17.062;2023-08-07T10:23:00;4.03;;;2.80;;
18280;SDS011;9266;51.132;17.062;2023-08-07T10:25:30;4.70;;;2.60;;
18280;SDS011;9266;51.132;17.062;2023-08-07T10:27:58;3.53;;;2.87;;
18280;SDS011;9266;51.132;17.062;2023-08-07T10:30:27;4.70;;;2.43;;
18280;SDS011;9266;51.132;17.062;2023-08-07T10:32:57;3.83;;;2.60;;
18280;SDS011;9266;51.132;17.062;2023-08-07T10:35:26;2.77;;;2.30;;
18280;SDS011;9266;51.132;17.062;2023-08-07T10:38:05;2.67;;;2.20;;
18280;SDS011;9266;51.132;17.062;2023-08-07T10:40:33;3.33;;;2.60;;
18280;SDS011;9266;51.132;17.062;2023-08-07T10:43:11;4.37;;;2.20;;
18280;SDS011;9266;51.132;17.062;2023-08-07T10:45:43;3.37;;;2.37;;
18280;SDS011;9266;51.132;17.062;2023-08-07T10:48:12;4.90;;;4.40;;
18280;SDS011;9266;51.132;17.062;2023-08-07T10:50:49;5.47;;;2.73;;
18280;SDS011;9266;51.132;17.062;2023-08-07T10:53:19;2.50;;;2.13;;
18280;SDS011;9266;51.132;17.062;2023-08-07T10:55:47;3.63;;;2.43;;
18280;SDS011;9266;51.132;17.062;2023-08-07T10:58:21;2.97;;;2.20;;
18280;SDS011;9266;51.132;17.062;2023-08-07T11:00:49;4.13;;;2.40;;
18280;SDS011;9266;51.132;17.062;2023-08-07T11:03:21;3.73;;;2.30;;
18280;SDS011;9266;51.132;17.062;2023-08-07T11:05:53;4.63;;;2.47;;
18280;SDS011;9266;51.132;17.062;2023-08-07T11:08:21;2.83;;;2.30;;
18280;SDS011;9266;51.132;17.062;2023-08-07T11:10:50;2.47;;;2.20;;
18280;SDS011;9266;51.132;17.062;2023-08-07T11:13:17;2.93;;;2.53;;
18280;SDS011;9266;51.132;17.062;2023-08-07T11:15:45;3.17;;;2.50;;
18280;SDS011;9266;51.132;17.062;2023-08-07T11:18:13;2.90;;;2.50;;
18280;SDS011;9266;51.132;17.062;2023-08-07T11:20:43;2.30;;;2.10;;
18280;SDS011;9266;51.132;17.062;2023-08-07T11:23:11;3.53;;;2.50;;
18280;SDS011;9266;51.132;17.062;2023-08-07T11:25:38;4.33;;;2.70;;
18280;SDS011;9266;51.132;17.062;2023-08-07T11:28:06;2.97;;;2.23;;
18280;SDS011;9266;51.132;17.062;2023-08-07T11:30:34;5.40;;;2.93;;
18280;SDS011;9266;51.132;17.062;2023-08-07T11:33:01;3.77;;;3.00;;
18280;SDS011;9266;51.132;17.062;2023-08-07T11:35:30;3.57;;;3.00;;
18280;SDS011;9266;51.132;17.062;2023-08-07T11:37:58;3.10;;;2.60;;
18280;SDS011;9266;51.132;17.062;2023-08-07T11:40:25;4.07;;;2.60;;
18280;SDS011;9266;51.132;17.062;2023-08-07T11:42:52;3.70;;;2.77;;
18280;SDS011;9266;51.132;17.062;2023-08-07T11:45:19;4.13;;;2.80;;
18280;SDS011;9266;51.132;17.062;2023-08-07T11:47:46;3.20;;;2.73;;
18280;SDS011;9266;51.132;17.062;2023-08-07T11:50:13;3.93;;;2.97;;
18280;SDS011;9266;51.132;17.062;2023-08-07T11:52:41;4.43;;;2.63;;
18280;SDS011;9266;51.132;17.062;2023-08-07T11:55:09;3.90;;;2.80;;
18280;SDS011;9266;51.132;17.062;2023-08-07T11:57:38;3.47;;;2.50;;
18280;SDS011;9266;51.132;17.062;2023-08-07T12:00:08;2.37;;;2.17;;
18280;SDS011;9266;51.132;17.062;2023-08-07T12:02:40;4.13;;;2.47;;
18280;SDS011;9266;51.132;17.062;2023-08-07T12:05:08;3.33;;;2.53;;
18280;SDS011;9266;51.132;17.062;2023-08-07T12:07:37;2.40;;;2.20;;
18280;SDS011;9266;51.132;17.062;2023-08-07T12:10:06;4.23;;;2.87;;
18280;SDS011;9266;51.132;17.062;2023-08-07T12:12:36;2.40;;;2.20;;
18280;SDS011;9266;51.132;17.062;2023-08-07T12:15:06;2.43;;;2.20;;
18280;SDS011;9266;51.132;17.062;2023-08-07T12:17:35;3.80;;;2.30;;
18280;SDS011;9266;51.132;17.062;2023-08-07T12:20:03;4.47;;;2.50;;
18280;SDS011;9266;51.132;17.062;2023-08-07T12:22:32;5.43;;;2.70;;
18280;SDS011;9266;51.132;17.062;2023-08-07T12:24:59;2.93;;;2.33;;
18280;SDS011;9266;51.132;17.062;2023-08-07T12:27:26;2.67;;;2.30;;
18280;SDS011;9266;51.132;17.062;2023-08-07T12:29:55;3.43;;;2.70;;
18280;SDS011;9266;51.132;17.062;2023-08-07T12:32:22;4.97;;;2.73;;
18280;SDS011;9266;51.132;17.062;2023-08-07T12:34:49;3.10;;;2.60;;
18280;SDS011;9266;51.132;17.062;2023-08-07T12:37:16;3.80;;;2.70;;
18280;SDS011;9266;51.132;17.062;2023-08-07T12:39:43;3.07;;;2.30;;
18280;SDS011;9266;51.132;17.062;2023-08-07T12:42:10;3.57;;;2.77;;
18280;SDS011;9266;51.132;17.062;2023-08-07T12:44:37;3.00;;;2.70;;
18280;SDS011;9266;51.132;17.062;2023-08-07T12:47:05;3.80;;;2.87;;
18280;SDS011;9266;51.132;17.062;2023-08-07T12:49:32;2.80;;;2.50;;
18280;SDS011;9266;51.132;17.062;2023-08-07T12:51:59;3.10;;;2.70;;
18280;SDS011;9266;51.132;17.062;2023-08-07T12:54:26;2.77;;;2.33;;
18280;SDS011;9266;51.132;17.062;2023-08-07T12:56:53;3.93;;;2.20;;
18280;SDS011;9266;51.132;17.062;2023-08-07T12:59:20;2.43;;;2.23;;
18280;SDS011;9266;51.132;17.062;2023-08-07T13:01:47;4.00;;;2.70;;
18280;SDS011;9266;51.132;17.062;2023-08-07T13:04:15;2.60;;;2.40;;
18280;SDS011;9266;51.132;17.062;2023-08-07T13:06:43;3.87;;;2.70;;
18280;SDS011;9266;51.132;17.062;2023-08-07T13:09:10;4.73;;;2.50;;
18280;SDS011;9266;51.132;17.062;2023-08-07T13:11:37;2.73;;;2.50;;
18280;SDS011;9266;51.132;17.062;2023-08-07T13:14:04;3.83;;;2.17;;
18280;SDS011;9266;51.132;17.062;2023-08-07T13:16:31;3.43;;;2.47;;
18280;SDS011;9266;51.132;17.062;2023-08-07T13:18:58;3.83;;;2.47;;
18280;SDS011;9266;51.132;17.062;2023-08-07T13:21:26;4.17;;;2.63;;
18280;SDS011;9266;51.132;17.062;2023-08-07T13:23:53;3.00;;;2.73;;
18280;SDS011;9266;51.132;17.062;2023-08-07T13:26:20;4.03;;;2.70;;
18280;SDS011;9266;51.132;17.062;2023-08-07T13:28:47;3.57;;;2.70;;
18280;SDS011;9266;51.132;17.062;2023-08-07T13:31:14;3.40;;;2.40;;
18280;SDS011;9266;51.132;17.062;2023-08-07T13:33:41;3.47;;;2.63;;
18280;SDS011;9266;51.132;17.062;2023-08-07T13:36:08;5.40;;;3.17;;
18280;SDS011;9266;51.132;17.062;2023-08-07T13:38:37;2.97;;;2.60;;
18280;SDS011;9266;51.132;17.062;2023-08-07T13:41:03;2.87;;;2.30;;
18280;SDS011;9266;51.132;17.062;2023-08-07T13:43:30;4.13;;;2.63;;
18280;SDS011;9266;51.132;17.062;2023-08-07T13:45:57;3.23;;;2.40;;
18280;SDS011;9266;51.132;17.062;2023-08-07T13:48:24;3.93;;;2.47;;
18280;SDS011;9266;51.132;17.062;2023-08-07T13:50:53;2.67;;;2.47;;
18280;SDS011;9266;51.132;17.062;2023-08-07T13:53:20;2.57;;;2.30;;
18280;SDS011;9266;51.132;17.062;2023-08-07T13:55:50;4.00;;;2.50;;
18280;SDS011;9266;51.132;17.062;2023-08-07T13:58:17;4.33;;;2.37;;
18280;SDS011;9266;51.132;17.062;2023-08-07T14:00:44;4.07;;;2.83;;
18280;SDS011;9266;51.132;17.062;2023-08-07T14:03:11;3.27;;;2.80;;
18280;SDS011;9266;51.132;17.062;2023-08-07T14:05:38;2.33;;;2.13;;
18280;SDS011;9266;51.132;17.062;2023-08-07T14:08:05;2.60;;;2.40;;
18280;SDS011;9266;51.132;17.062;2023-08-07T14:10:32;2.40;;;2.07;;
18280;SDS011;9266;51.132;17.062;2023-08-07T14:13:02;3.73;;;2.10;;
18280;SDS011;9266;51.132;17.062;2023-08-07T14:15:30;2.70;;;2.20;;
18280;SDS011;9266;51.132;17.062;2023-08-07T14:17:57;4.43;;;2.47;;
18280;SDS011;9266;51.132;17.062;2023-08-07T14:20:24;4.67;;;2.53;;
18280;SDS011;9266;51.132;17.062;2023-08-07T14:22:51;5.30;;;2.70;;
18280;SDS011;9266;51.132;17.062;2023-08-07T14:25:18;3.47;;;2.30;;
18280;SDS011;9266;51.132;17.062;2023-08-07T14:27:46;2.73;;;2.30;;
18280;SDS011;9266;51.132;17.062;2023-08-07T14:30:15;3.90;;;2.70;;
18280;SDS011;9266;51.132;17.062;2023-08-07T14:32:42;3.50;;;2.33;;
18280;SDS011;9266;51.132;17.062;2023-08-07T14:35:09;3.70;;;2.40;;
18280;SDS011;9266;51.132;17.062;2023-08-07T14:37:36;3.03;;;2.30;;
18280;SDS011;9266;51.132;17.062;2023-08-07T14:40:03;4.73;;;2.40;;
18280;SDS011;9266;51.132;17.062;2023-08-07T14:42:31;2.87;;;2.53;;
18280;SDS011;9266;51.132;17.062;2023-08-07T14:44:58;2.57;;;2.13;;
18280;SDS011;9266;51.132;17.062;2023-08-07T14:47:27;2.50;;;2.10;;
18280;SDS011;9266;51.132;17.062;2023-08-07T14:49:54;3.57;;;2.87;;
18280;SDS011;9266;51.132;17.062;2023-08-07T14:52:21;3.17;;;2.07;;